UUWW/VKO METAR and TAF weather

Enter ICAO airport designator
Station Type Date Time Source
UUWW METAR 2019/07/17 18:30 UTC NOAA

UUWW 171830Z 08002MPS 8000 SCT011 BKN036 16/14 Q1005 R06/290050 NOSIG


Station Type Date Time Source
UUWW Decoded METAR 2019/07/17 18:30 UTC NOAA

Moscow / Vnukovo , Russia (UUWW) 55-39N 037-16E
Jul 17, 2019 - 02:30 PM EDT / 2019.07.17 1830 UTC
Wind: from the E (080 degrees) at 4 MPH (4 KT):0
Visibility: 4 mile(s):0
Sky conditions: mostly cloudy
Temperature: 60 F (16 C)
Dew Point: 57 F (14 C)
Relative Humidity: 87%
Pressure (altimeter): 29.68 in. Hg (1005 hPa)
ob: UUWW 171830Z 08002MPS 8000 SCT011 BKN036 16/14 Q1005 R06/290050 NOSIG
cycle: 18

Station Type Date Time Source
UUWW TAF 2019/07/17 18:21 UTC NOAA

TAF UUWW 171658Z 1718/1818 VRB01MPS 6000 BKN007 TX20/1812Z TN15/1803Z
TEMPO 1718/1721 1500 -TSRA BR FEW004 BKN020CB
TEMPO 1721/1805 0300 -SHRA FG FEW002 BKN020CB PROB40
TEMPO 1721/1805 -TSRA BKN020CB
BECMG 1805/1806 19003MPS BKN011
TEMPO 1806/1818 19008G13MPS 3100 -TSRA FEW005 BKN020CB

Example: see airport list